Time;durP1;ratioP1;P1;durP2;ratioP2;P2;SDS_P1;SDS_P2;PMS_P1;PMS_P2;Temp;Humidity;BMP_temperature;BMP_pressure;BME280_temperature;BME280_humidity;BME280_pressure;Samples;Min_cycle;Max_cycle;Signal;HPM_P1;HPM_P2
2021/05/29 00:01:06;;;;;;;7.37;5.30;;;;;;;9.42;72.88;101196.84;1639501;84;27999;-62
2021/05/29 00:03:33;;;;;;;15.85;6.22;;;;;;;9.43;72.90;101201.73;1654428;84;26047;-62
2021/05/29 00:06:00;;;;;;;8.18;5.50;;;;;;;9.40;72.94;101211.19;1657899;84;25753;-62
2021/05/29 00:08:26;;;;;;;9.05;5.97;;;;;;;9.37;72.92;101207.27;1655486;84;25715;-62
2021/05/29 00:10:57;;;;;;;11.95;5.83;;;;;;;9.32;72.93;101204.72;1654387;84;25687;-62
2021/05/29 00:13:26;;;;;;;9.48;5.72;;;;;;;9.27;72.96;101203.98;1670473;84;27442;-62
2021/05/29 00:15:55;;;;;;;11.88;6.47;;;;;;;9.23;72.99;101207.66;1671465;84;27233;-62
2021/05/29 00:18:25;;;;;;;9.88;6.28;;;;;;;9.18;73.05;101207.38;1671732;84;25594;-61
2021/05/29 00:20:54;;;;;;;8.73;5.33;;;;;;;9.14;73.11;101210.59;1670412;84;26268;-61
2021/05/29 00:23:21;;;;;;;12.25;5.65;;;;;;;9.10;73.21;101209.81;1655231;84;25696;-61
2021/05/29 00:25:49;;;;;;;9.65;5.85;;;;;;;9.05;73.38;101204.17;1653194;84;27353;-61
2021/05/29 00:28:16;;;;;;;11.63;5.62;;;;;;;8.98;73.36;101206.60;1672379;84;27076;-62
2021/05/29 00:30:45;;;;;;;9.00;5.72;;;;;;;8.93;73.50;101204.52;1671212;84;25625;-61
2021/05/29 00:33:12;;;;;;;9.35;6.08;;;;;;;8.87;73.49;101204.69;1668731;84;25745;-61
2021/05/29 00:35:39;;;;;;;11.03;5.72;;;;;;;8.81;73.62;101198.17;1660989;84;26330;-61
2021/05/29 00:38:06;;;;;;;8.88;5.53;;;;;;;8.76;73.69;101200.50;1663237;84;27807;-61
2021/05/29 00:40:34;;;;;;;10.05;6.08;;;;;;;8.73;73.72;101204.59;1657944;84;25720;-61
2021/05/29 00:43:00;;;;;;;11.57;6.90;;;;;;;8.71;73.80;101203.76;1656697;84;26401;-61
2021/05/29 00:45:28;;;;;;;15.53;6.67;;;;;;;8.70;73.76;101203.80;1666517;84;25817;-62
2021/05/29 00:47:56;;;;;;;10.93;6.30;;;;;;;8.68;73.80;101202.50;1656464;84;25651;-61
2021/05/29 00:50:22;;;;;;;10.25;6.25;;;;;;;8.65;73.82;101201.25;1667020;84;27363;-62
2021/05/29 00:52:48;;;;;;;12.45;6.47;;;;;;;8.64;73.84;101199.50;1671245;84;25675;-61
2021/05/29 00:55:17;;;;;;;12.50;7.55;;;;;;;8.61;73.86;101204.05;1659746;84;25768;-62
2021/05/29 00:57:47;;;;;;;13.15;7.03;;;;;;;8.61;73.90;101204.05;1652228;84;25707;-61
2021/05/29 01:00:18;;;;;;;14.25;7.15;;;;;;;8.59;73.87;101200.08;1646758;84;25673;-61
2021/05/29 01:02:46;;;;;;;13.95;7.47;;;;;;;8.58;73.91;101200.99;1649842;84;27370;-62
2021/05/29 01:05:15;;;;;;;10.25;6.62;;;;;;;8.57;73.97;101200.58;1644066;85;25869;-62
2021/05/29 01:07:51;;;;;;;11.05;6.80;;;;;;;8.57;74.00;101201.91;1649426;85;25659;-61
2021/05/29 01:10:20;;;;;;;12.03;6.62;;;;;;;8.54;73.99;101196.65;1646030;85;25775;-62
2021/05/29 01:12:47;;;;;;;9.68;6.37;;;;;;;8.53;74.01;101198.02;1631801;85;26510;-62
2021/05/29 01:15:16;;;;;;;11.57;6.75;;;;;;;8.52;74.06;101208.29;1650297;85;28297;-62
2021/05/29 01:17:42;;;;;;;9.13;6.53;;;;;;;8.50;74.11;101211.00;1658319;85;25687;-62
2021/05/29 01:20:13;;;;;;;14.23;7.58;;;;;;;8.46;74.17;101208.87;1645708;85;25751;-62
2021/05/29 01:22:51;;;;;;;13.18;7.50;;;;;;;8.45;74.26;101209.78;1655289;85;25713;-62
2021/05/29 01:25:25;;;;;;;11.12;7.05;;;;;;;8.49;74.38;101205.70;1667855;85;26316;-63
2021/05/29 01:28:16;;;;;;;11.38;7.08;;;;;;;8.47;74.37;101209.75;1658696;85;27832;-63
2021/05/29 01:30:49;;;;;;;10.10;5.92;;;;;;;8.50;74.46;101206.12;1643875;85;26442;-63
2021/05/29 01:33:21;;;;;;;9.95;6.75;;;;;;;8.51;74.42;101202.07;1659396;85;25690;-63
2021/05/29 01:35:48;;;;;;;13.30;6.13;;;;;;;8.49;74.43;101207.03;1660347;85;25714;-63
2021/05/29 01:38:17;;;;;;;10.13;6.37;;;;;;;8.45;74.45;101201.77;1662342;85;26341;-63
2021/05/29 01:40:44;;;;;;;11.05;6.72;;;;;;;8.45;74.52;101200.89;1647143;85;27472;-63
2021/05/29 01:43:14;;;;;;;12.95;7.12;;;;;;;8.46;74.59;101197.30;1644127;84;27255;-63
2021/05/29 01:45:44;;;;;;;11.10;7.70;;;;;;;8.46;74.58;101197.30;1650167;85;25698;-62
2021/05/29 01:48:12;;;;;;;14.45;7.62;;;;;;;8.48;74.59;101204.82;1645017;85;25696;-63
2021/05/29 01:50:48;;;;;;;13.22;7.70;;;;;;;8.49;74.62;101204.36;1653234;85;26451;-62
2021/05/29 01:53:19;;;;;;;13.98;6.85;;;;;;;8.52;74.63;101206.95;1647343;85;27457;-62
2021/05/29 01:55:49;;;;;;;10.43;6.05;;;;;;;8.53;74.61;101206.91;1662024;85;26115;-62
2021/05/29 01:58:17;;;;;;;15.98;7.67;;;;;;;8.54;74.59;101208.67;1651303;84;26564;-62
2021/05/29 02:00:44;;;;;;;11.93;6.15;;;;;;;8.56;74.61;101208.62;1664432;85;25638;-62
2021/05/29 02:03:11;;;;;;;13.35;6.97;;;;;;;8.56;74.56;101211.30;1659557;85;25750;-62
2021/05/29 02:05:39;;;;;;;10.25;6.40;;;;;;;8.56;74.56;101215.31;1646830;84;27027;-62
2021/05/29 02:08:08;;;;;;;10.48;6.30;;;;;;;8.55;74.67;101212.22;1655941;85;25587;-62
2021/05/29 02:10:36;;;;;;;12.40;7.40;;;;;;;8.55;74.71;101212.22;1660744;85;25726;-62
2021/05/29 02:13:07;;;;;;;11.97;7.20;;;;;;;8.55;74.75;101208.22;1647330;85;25850;-62
2021/05/29 02:15:36;;;;;;;11.93;7.83;;;;;;;8.55;74.77;101208.22;1651559;85;25660;-62
2021/05/29 02:18:09;;;;;;;16.55;8.18;;;;;;;8.44;74.77;101186.66;1651370;85;27876;-62
2021/05/29 02:20:45;;;;;;;14.07;6.75;;;;;;;8.57;74.78;101205.92;1663170;85;26463;-62
2021/05/29 02:23:22;;;;;;;15.05;8.05;;;;;;;8.58;74.87;101206.34;1646126;85;25883;-63
2021/05/29 02:25:50;;;;;;;11.25;7.90;;;;;;;8.56;74.89;101212.18;1650366;85;25925;-62
2021/05/29 02:28:20;;;;;;;14.63;7.55;;;;;;;8.55;74.99;101210.88;1648600;85;25668;-62
2021/05/29 02:30:48;;;;;;;18.48;7.90;;;;;;;8.56;75.03;101208.17;1646877;85;27425;-62
2021/05/29 02:33:17;;;;;;;13.78;8.43;;;;;;;8.56;75.06;101212.64;1646114;85;25670;-62
2021/05/29 02:35:43;;;;;;;12.90;7.90;;;;;;;8.56;75.14;101208.62;1645973;84;25759;-62
2021/05/29 02:38:11;;;;;;;13.05;7.67;;;;;;;8.55;75.17;101203.75;1644205;85;25768;-62
2021/05/29 02:40:37;;;;;;;16.25;9.85;;;;;;;8.57;75.18;101207.72;1653683;84;25703;-62
2021/05/29 02:43:06;;;;;;;11.43;7.42;;;;;;;8.60;75.22;101202.29;1649131;85;27357;-62
2021/05/29 02:45:34;;;;;;;12.90;7.67;;;;;;;8.62;75.23;101207.13;1652944;85;25696;-62
2021/05/29 02:48:03;;;;;;;12.13;6.72;;;;;;;8.61;75.24;101204.92;1657059;85;26454;-62
2021/05/29 02:50:29;;;;;;;13.08;7.55;;;;;;;8.60;75.21;101204.50;1655391;85;25777;-62
2021/05/29 02:52:54;;;;;;;13.62;8.08;;;;;;;8.59;75.22;101205.88;1648901;85;25704;-62
2021/05/29 02:55:23;;;;;;;11.78;7.40;;;;;;;8.61;75.23;101204.05;1653990;85;27762;-62
2021/05/29 02:57:58;;;;;;;13.53;8.25;;;;;;;8.62;75.24;101206.67;1648596;85;26110;-62
2021/05/29 03:00:29;;;;;;;17.00;7.37;;;;;;;8.64;75.21;101210.19;1655556;84;25730;-62
2021/05/29 03:02:57;;;;;;;11.78;7.40;;;;;;;8.66;75.24;101201.67;1634237;85;25755;-62
2021/05/29 03:05:24;;;;;;;12.03;7.62;;;;;;;8.66;75.26;101208.35;1652145;84;25664;-62
2021/05/29 03:07:51;;;;;;;13.48;7.62;;;;;;;8.69;75.23;101208.73;1651331;84;27352;-62
2021/05/29 03:10:21;;;;;;;11.05;7.15;;;;;;;8.70;75.21;101210.02;1637887;84;25680;-62
2021/05/29 03:12:52;;;;;;;13.98;7.78;;;;;;;8.72;75.18;101217.55;1664598;84;25972;-62
2021/05/29 03:15:23;;;;;;;11.75;6.97;;;;;;;8.73;75.22;101219.30;1639266;84;25772;-62
2021/05/29 03:17:49;;;;;;;15.60;7.97;;;;;;;8.74;75.17;101219.72;1654147;84;25745;-62
2021/05/29 03:20:21;;;;;;;11.05;7.40;;;;;;;8.74;75.18;101220.17;1661690;84;29596;-62
2021/05/29 03:22:48;;;;;;;16.75;7.62;;;;;;;8.73;75.23;101217.95;1647410;84;25674;-62
2021/05/29 03:25:17;;;;;;;11.73;6.35;;;;;;;8.73;75.23;101217.95;1664345;84;25642;-62
2021/05/29 03:27:51;;;;;;;18.95;7.78;;;;;;;8.74;75.28;101217.50;1665134;84;26244;-63
2021/05/29 03:30:20;;;;;;;18.07;7.30;;;;;;;8.74;75.31;101214.38;1657591;84;25667;-62
2021/05/29 03:32:46;;;;;;;13.03;7.77;;;;;;;8.75;75.30;101220.59;1653102;84;27407;-63
2021/05/29 03:35:13;;;;;;;10.48;7.70;;;;;;;8.76;75.35;101217.88;1645874;84;26042;-62
2021/05/29 03:37:41;;;;;;;12.78;7.67;;;;;;;8.77;75.37;101218.76;1663316;84;25662;-62
2021/05/29 03:40:11;;;;;;;11.10;7.70;;;;;;;8.78;75.42;101217.38;1655320;84;26428;-63
2021/05/29 03:42:39;;;;;;;16.95;8.10;;;;;;;8.80;75.45;101217.34;1657523;84;26176;-63
2021/05/29 03:45:13;;;;;;;14.63;9.65;;;;;;;8.82;75.51;101217.30;1657587;84;28302;-63
2021/05/29 03:47:41;;;;;;;13.45;8.60;;;;;;;8.83;75.56;101214.58;1647688;84;25703;-62
2021/05/29 03:50:09;;;;;;;11.55;7.78;;;;;;;8.87;75.51;101212.70;1650772;84;25633;-63
2021/05/29 03:52:35;;;;;;;15.05;8.53;;;;;;;8.89;75.52;101217.09;1657293;84;25714;-62
2021/05/29 03:55:03;;;;;;;15.25;8.20;;;;;;;8.89;75.59;101219.77;1657619;84;26371;-63
2021/05/29 03:57:29;;;;;;;14.58;8.33;;;;;;;8.92;75.58;101224.14;1659803;84;27453;-62
2021/05/29 03:59:54;;;;;;;12.40;8.10;;;;;;;8.96;75.60;101217.80;1674108;84;25700;-63
2021/05/29 04:02:20;;;;;;;13.25;8.13;;;;;;;8.98;75.66;101214.16;1664797;84;26494;-63
2021/05/29 04:04:47;;;;;;;17.48;8.45;;;;;;;9.02;75.66;101213.62;1666677;84;26612;-62
2021/05/29 04:07:16;;;;;;;12.33;7.58;;;;;;;9.05;75.62;101213.53;1650389;84;26335;-62
2021/05/29 04:09:42;;;;;;;13.20;7.95;;;;;;;9.03;75.62;101210.02;1647764;84;27390;-63
2021/05/29 04:12:10;;;;;;;16.32;7.47;;;;;;;9.11;75.68;101212.02;1660168;84;26122;-62
2021/05/29 04:14:37;;;;;;;12.43;7.60;;;;;;;9.13;75.65;101215.99;1660581;84;26471;-62
2021/05/29 04:17:04;;;;;;;12.40;7.72;;;;;;;9.18;75.63;101219.41;1645911;84;25707;-62
2021/05/29 04:19:30;;;;;;;13.38;7.30;;;;;;;9.21;75.66;101220.66;1654547;84;25577;-62
2021/05/29 04:21:57;;;;;;;12.98;7.90;;;;;;;9.23;75.60;101215.69;1660157;84;27513;-63
2021/05/29 04:24:23;;;;;;;14.20;8.58;;;;;;;9.26;75.62;101218.27;1652262;84;25746;-63
2021/05/29 04:26:50;;;;;;;17.05;8.45;;;;;;;9.32;75.66;101217.22;1634156;84;25672;-62
2021/05/29 04:29:18;;;;;;;13.05;8.08;;;;;;;9.37;75.63;101217.50;1648736;84;26462;-63
2021/05/29 04:31:44;;;;;;;14.00;9.03;;;;;;;9.39;75.61;101219.67;1666206;84;25620;-63
2021/05/29 04:34:09;;;;;;;14.10;8.75;;;;;;;9.41;75.58;101216.48;1657053;84;27458;-63
2021/05/29 04:36:36;;;;;;;14.10;9.38;;;;;;;9.47;75.55;101223.92;1635610;84;26333;-62
2021/05/29 04:39:06;;;;;;;14.03;9.03;;;;;;;9.51;75.50;101221.57;1658493;84;25686;-63
2021/05/29 04:41:34;;;;;;;16.37;8.10;;;;;;;9.53;75.46;101219.27;1652894;84;25793;-63
2021/05/29 04:44:00;;;;;;;14.20;8.55;;;;;;;9.56;75.43;101223.64;1645258;84;25612;-62
2021/05/29 04:46:27;;;;;;;15.18;8.18;;;;;;;9.53;75.36;101224.61;1639870;84;27396;-63
2021/05/29 04:48:53;;;;;;;11.38;7.30;;;;;;;9.53;75.39;101217.92;1655358;84;26487;-63
2021/05/29 04:51:19;;;;;;;15.70;8.58;;;;;;;9.53;75.39;101215.25;1643242;84;25821;-62
2021/05/29 04:53:49;;;;;;;16.02;9.15;;;;;;;9.54;75.38;101218.80;1640719;84;28061;-62
2021/05/29 04:56:17;;;;;;;12.65;7.70;;;;;;;9.58;75.36;101219.13;1670028;84;25621;-62
2021/05/29 04:58:44;;;;;;;12.78;8.28;;;;;;;9.61;75.35;101221.25;1654131;84;29566;-62
2021/05/29 05:01:12;;;;;;;22.25;8.90;;;;;;;9.64;75.33;101217.60;1635318;84;25673;-62
2021/05/29 05:03:41;;;;;;;13.18;7.72;;;;;;;9.69;75.30;101223.70;1645388;84;25889;-62
2021/05/29 05:06:11;;;;;;;15.53;8.13;;;;;;;9.68;75.23;101219.27;1634687;84;26453;-62
2021/05/29 05:08:38;;;;;;;13.70;8.60;;;;;;;9.66;75.21;101221.11;1650246;84;25988;-62
2021/05/29 05:11:05;;;;;;;14.05;8.40;;;;;;;9.69;75.25;101221.02;1654472;84;27368;-62
2021/05/29 05:13:35;;;;;;;16.07;9.70;;;;;;;9.67;75.16;101220.19;1666119;84;27091;-63
2021/05/29 05:16:00;;;;;;;17.57;9.18;;;;;;;9.70;75.22;101220.09;1659330;84;25721;-62
2021/05/29 05:18:28;;;;;;;18.32;9.28;;;;;;;9.73;75.23;101221.34;1656656;84;25803;-62
2021/05/29 05:20:55;;;;;;;16.27;10.03;;;;;;;9.76;75.17;101214.09;1646125;84;25588;-63
2021/05/29 05:23:22;;;;;;;15.05;8.80;;;;;;;9.80;75.20;101217.55;1631550;86;28050;-63
2021/05/29 05:25:53;;;;;;;12.15;8.18;;;;;;;9.84;75.10;101219.20;1641379;85;25701;-63
2021/05/29 05:28:26;;;;;;;17.73;8.93;;;;;;;9.85;75.10;101220.96;1645050;84;25688;-63
2021/05/29 05:31:03;;;;;;;13.45;8.60;;;;;;;9.89;75.08;101219.94;1638014;84;25781;-63
2021/05/29 05:33:38;;;;;;;15.63;8.45;;;;;;;9.95;75.13;101221.55;1650088;85;25695;-62
2021/05/29 05:36:06;;;;;;;16.15;8.10;;;;;;;10.00;75.04;101222.28;1648973;84;27435;-63
2021/05/29 05:38:32;;;;;;;16.37;9.58;;;;;;;10.03;75.01;101225.73;1650629;84;26184;-62
2021/05/29 05:40:58;;;;;;;18.15;8.35;;;;;;;10.08;75.03;101220.23;1642359;84;25732;-63
2021/05/29 05:43:24;;;;;;;13.98;9.25;;;;;;;10.16;75.02;101218.65;1645482;84;26534;-63
2021/05/29 05:45:50;;;;;;;17.02;9.88;;;;;;;10.17;74.92;101217.72;1645829;84;25695;-62
2021/05/29 05:48:16;;;;;;;14.07;9.25;;;;;;;10.23;74.93;101221.58;1646718;84;29603;-63
2021/05/29 05:50:54;;;;;;;15.90;9.03;;;;;;;10.28;74.88;101229.87;1644839;84;25627;-62
2021/05/29 05:53:25;;;;;;;14.23;8.90;;;;;;;10.28;74.76;101227.20;1652315;85;25785;-63
2021/05/29 05:56:00;;;;;;;17.30;9.60;;;;;;;10.26;74.75;101233.06;1653562;84;25626;-63
2021/05/29 05:58:29;;;;;;;14.95;9.43;;;;;;;10.31;74.81;101231.11;1664001;84;25784;-62
2021/05/29 06:00:57;;;;;;;19.85;9.68;;;;;;;10.35;74.75;101234.56;1638304;84;27451;-63
2021/05/29 06:03:24;;;;;;;18.67;9.40;;;;;;;10.36;74.74;101236.32;1650046;84;26274;-63
2021/05/29 06:05:50;;;;;;;14.78;9.10;;;;;;;10.35;74.70;101235.91;1648173;84;25702;-63
2021/05/29 06:08:18;;;;;;;27.77;9.85;;;;;;;10.32;74.72;101236.01;1652604;84;26697;-63
2021/05/29 06:10:45;;;;;;;13.30;9.28;;;;;;;10.34;74.72;101233.69;1663463;84;25575;-63
2021/05/29 06:13:27;;;;;;;15.65;9.75;;;;;;;10.33;74.67;101235.08;1640979;84;28271;-62
2021/05/29 06:21:15;;;;;;;14.93;9.53;;;;;;;10.36;74.77;101249.72;1613602;86;25755;-63
2021/05/29 06:23:42;;;;;;;17.67;8.45;;;;;;;10.35;74.72;101251.98;1639738;85;25667;-63
2021/05/29 06:26:08;;;;;;;14.28;8.55;;;;;;;10.37;74.82;101252.81;1666426;84;27411;-62
2021/05/29 06:28:37;;;;;;;13.83;8.38;;;;;;;10.36;74.82;101252.40;1637372;84;25695;-63
2021/05/29 06:31:04;;;;;;;17.57;9.30;;;;;;;10.37;74.76;101254.16;1659811;84;25664;-62
2021/05/29 06:33:31;;;;;;;18.57;8.73;;;;;;;10.35;74.87;101255.55;1637813;84;26475;-62
2021/05/29 06:35:58;;;;;;;14.68;8.13;;;;;;;10.31;74.90;101247.66;1650966;85;25631;-62
2021/05/29 06:38:24;;;;;;;12.20;8.65;;;;;;;10.34;74.96;101254.25;1655114;84;27329;-62
2021/05/29 06:40:50;;;;;;;18.62;9.30;;;;;;;10.37;74.94;101255.49;1617725;86;26254;-62
2021/05/29 06:43:19;;;;;;;19.27;8.63;;;;;;;10.36;74.98;101253.73;1638781;84;26401;-62
2021/05/29 06:45:45;;;;;;;13.20;8.55;;;;;;;10.37;74.99;101251.47;1652674;84;26470;-62
2021/05/29 06:48:13;;;;;;;13.40;8.90;;;;;;;10.36;75.05;101251.94;1654393;84;25924;-61
2021/05/29 06:50:39;;;;;;;16.48;9.28;;;;;;;10.35;75.08;101248.84;1636944;84;27838;-62
2021/05/29 06:53:10;;;;;;;17.23;9.18;;;;;;;10.34;75.14;101247.55;1653879;84;25712;-62
2021/05/29 07:01:03;;;;;;;17.85;9.88;;;;;;;10.26;75.43;101234.88;1649771;84;26335;-62
2021/05/29 07:03:29;;;;;;;13.88;8.48;;;;;;;10.30;75.50;101228.02;1648959;84;28138;-62
2021/05/29 07:05:54;;;;;;;14.60;9.88;;;;;;;10.36;75.45;101231.84;1662401;84;25889;-63
2021/05/29 07:08:22;;;;;;;14.87;8.70;;;;;;;10.43;75.53;101228.92;1658461;84;25617;-63
2021/05/29 07:10:48;;;;;;;16.62;9.50;;;;;;;10.53;75.57;101227.22;1664114;84;26333;-62
2021/05/29 07:13:14;;;;;;;15.55;9.60;;;;;;;10.62;75.57;101230.93;1669768;84;25643;-62
2021/05/29 07:15:42;;;;;;;13.55;8.63;;;;;;;10.72;75.58;101231.02;1658145;84;27375;-62
2021/05/29 07:18:13;;;;;;;11.80;8.35;;;;;;;10.80;75.55;101227.20;1662342;84;26140;-62
2021/05/29 07:20:41;;;;;;;14.18;8.55;;;;;;;10.86;75.53;101226.98;1654111;84;25694;-62
2021/05/29 07:23:08;;;;;;;13.18;8.15;;;;;;;10.92;75.59;101228.98;1659366;84;26278;-63
2021/05/29 07:25:36;;;;;;;11.43;8.00;;;;;;;10.97;75.67;101230.16;1640702;84;25709;-62
2021/05/29 07:28:04;;;;;;;14.75;9.05;;;;;;;11.06;75.75;101232.05;1672781;84;27984;-62
2021/05/29 07:30:30;;;;;;;15.13;9.28;;;;;;;11.21;75.79;101241.82;1659928;84;25690;-62
2021/05/29 07:32:57;;;;;;;15.28;8.83;;;;;;;11.30;75.75;101235.66;1649391;84;25649;-62
2021/05/29 07:35:27;;;;;;;11.63;8.35;;;;;;;11.41;75.76;101235.25;1681619;84;26282;-62
2021/05/29 07:37:52;;;;;;;9.85;7.22;;;;;;;11.51;75.72;101241.16;1667626;84;25685;-61
2021/05/29 07:40:20;;;;;;;30.30;10.55;;;;;;;11.55;75.69;101239.64;1656378;84;27867;-60
2021/05/29 07:42:48;;;;;;;12.45;9.13;;;;;;;11.71;75.77;101238.59;1654769;84;25893;-60
2021/05/29 07:45:15;;;;;;;12.33;8.60;;;;;;;11.84;75.68;101239.89;1653223;84;25944;-60
2021/05/29 07:47:42;;;;;;;12.28;8.43;;;;;;;11.94;75.62;101231.01;1650692;84;25640;-61
2021/05/29 07:50:10;;;;;;;17.85;8.73;;;;;;;12.03;75.62;101236.89;1659761;84;26043;-60
2021/05/29 07:52:39;;;;;;;14.98;8.50;;;;;;;12.02;75.39;101239.17;1664459;84;27533;-63
2021/05/29 07:55:10;;;;;;;14.05;8.23;;;;;;;12.08;75.45;101239.39;1660248;84;25899;-63
2021/05/29 07:57:38;;;;;;;12.03;7.80;;;;;;;12.22;75.41;101234.80;1661593;84;26435;-63
2021/05/29 08:00:13;;;;;;;9.83;6.33;;;;;;;12.39;75.42;101237.67;1666926;84;26421;-64
2021/05/29 08:02:41;;;;;;;14.30;6.97;;;;;;;12.51;75.26;101234.48;1668219;84;25795;-63
2021/05/29 08:05:19;;;;;;;11.45;7.33;;;;;;;12.62;75.07;101247.00;1654063;84;29550;-62
2021/05/29 08:07:46;;;;;;;10.05;6.28;;;;;;;12.65;74.74;101257.63;1655150;84;25344;-62
2021/05/29 08:10:14;;;;;;;7.22;6.08;;;;;;;12.66;74.72;101256.69;1642395;84;25735;-62
2021/05/29 08:12:40;;;;;;;10.48;6.67;;;;;;;12.71;74.61;101258.31;1655522;84;26270;-62
2021/05/29 08:15:08;;;;;;;13.13;7.83;;;;;;;12.66;74.25;101256.69;1667681;84;26372;-62
2021/05/29 08:17:36;;;;;;;13.53;7.90;;;;;;;12.63;74.02;101263.55;1657331;84;27429;-62
2021/05/29 08:20:04;;;;;;;11.90;7.62;;;;;;;12.57;73.91;101264.27;1654547;84;25647;-62
2021/05/29 08:22:29;;;;;;;8.73;7.47;;;;;;;12.59;73.69;101259.23;1647512;84;25609;-62
2021/05/29 08:24:55;;;;;;;11.63;7.97;;;;;;;12.58;73.64;101248.08;1651668;84;25781;-62
2021/05/29 08:27:21;;;;;;;14.13;8.45;;;;;;;12.55;72.55;101248.67;1651013;84;25613;-62
2021/05/29 08:29:48;;;;;;;16.20;7.42;;;;;;;12.47;72.91;101232.86;1649703;84;27367;-62
2021/05/29 08:32:14;;;;;;;12.58;8.30;;;;;;;12.60;72.94;101226.49;1661928;84;27133;-63
2021/05/29 08:34:39;;;;;;;13.35;6.97;;;;;;;12.64;72.84;101215.54;1652407;84;25712;-63
2021/05/29 08:37:06;;;;;;;13.88;9.33;;;;;;;12.64;72.59;101207.47;1667996;84;25832;-63
2021/05/29 08:39:33;;;;;;;14.18;9.38;;;;;;;12.67;72.60;101210.03;1656099;84;25701;-63
2021/05/29 08:42:04;;;;;;;18.27;9.15;;;;;;;12.76;72.36;101219.98;1664865;84;27470;-62
2021/05/29 08:44:31;;;;;;;13.50;9.18;;;;;;;12.72;72.42;101221.06;1665859;84;25709;-63
2021/05/29 08:46:57;;;;;;;12.43;9.23;;;;;;;12.79;72.40;101226.58;1652859;84;25805;-63
2021/05/29 08:49:26;;;;;;;11.45;8.60;;;;;;;12.88;72.36;101225.71;1646552;84;25719;-63
2021/05/29 08:51:52;;;;;;;13.58;8.85;;;;;;;12.97;72.14;101223.97;1658335;84;25663;-63
2021/05/29 08:54:18;;;;;;;9.95;7.78;;;;;;;12.98;71.94;101231.09;1650963;84;27438;-63
2021/05/29 08:56:44;;;;;;;13.65;9.05;;;;;;;12.95;71.78;101231.70;1646168;84;25631;-63
2021/05/29 08:59:11;;;;;;;13.50;9.35;;;;;;;12.86;71.46;101227.59;1651672;84;25738;-63
2021/05/29 09:01:37;;;;;;;14.65;8.40;;;;;;;12.93;71.54;101229.08;1646251;84;26148;-63
2021/05/29 09:04:06;;;;;;;14.60;9.23;;;;;;;12.98;71.54;101220.33;1660037;84;26378;-63
2021/05/29 09:06:37;;;;;;;15.70;9.05;;;;;;;13.12;71.56;101220.16;1665414;84;27969;-63
2021/05/29 09:09:10;;;;;;;14.75;8.73;;;;;;;13.12;71.28;101219.69;1670507;84;25737;-63
2021/05/29 09:11:53;;;;;;;11.65;8.08;;;;;;;13.14;71.07;101219.15;1674465;84;25756;-63
2021/05/29 09:14:35;;;;;;;11.50;8.03;;;;;;;13.19;70.95;101225.23;1662752;84;27906;-63
2021/05/29 09:17:21;;;;;;;;;;;;;;;13.24;70.98;101234.45;1659770;84;25604;-63
2021/05/29 09:20:09;;;;;;;9.95;7.97;;;;;;;13.33;70.72;101232.69;1651636;84;27456;-62
2021/05/29 09:22:57;;;;;;;12.18;9.15;;;;;;;13.33;70.93;101229.52;1653651;84;25695;-62
2021/05/29 09:25:27;;;;;;;12.70;8.73;;;;;;;13.35;70.71;101224.54;1654643;84;25679;-63
2021/05/29 09:28:03;;;;;;;12.90;7.45;;;;;;;13.29;70.45;101229.73;1655662;84;27238;-62
2021/05/29 09:30:49;;;;;;;12.43;8.48;;;;;;;13.31;70.51;101231.41;1648554;84;25638;-62
2021/05/29 09:33:28;;;;;;;15.25;7.28;;;;;;;13.23;69.49;101235.39;1647666;84;27481;-62
2021/05/29 09:36:05;;;;;;;12.98;7.70;;;;;;;13.12;69.73;101234.48;1641771;84;26098;-62
2021/05/29 09:38:43;;;;;;;18.15;8.65;;;;;;;13.19;69.44;101239.16;1675116;84;26075;-62
2021/05/29 09:41:25;;;;;;;9.28;8.28;;;;;;;13.17;69.71;101235.19;1656179;84;25629;-62
2021/05/29 09:44:04;;;;;;;10.58;7.28;;;;;;;13.16;69.61;101232.53;1639323;84;25680;-62
2021/05/29 09:46:53;;;;;;;12.68;7.08;;;;;;;13.11;69.33;101235.43;1652723;84;27368;-62
2021/05/29 09:49:19;;;;;;;14.33;8.38;;;;;;;13.03;69.30;101238.94;1643913;84;26057;-62
2021/05/29 09:51:44;;;;;;;9.05;6.30;;;;;;;12.91;69.34;101231.43;1641735;84;26023;-62
2021/05/29 09:54:12;;;;;;;9.40;5.72;;;;;;;12.87;69.31;101230.69;1652347;84;25948;-62
2021/05/29 09:56:45;;;;;;;9.78;6.08;;;;;;;12.80;69.38;101227.86;1664408;84;25595;-62
2021/05/29 09:59:20;;;;;;;9.43;5.25;;;;;;;12.74;69.42;101231.28;1653208;84;27416;-62
2021/05/29 10:01:57;;;;;;;10.03;5.08;;;;;;;12.71;69.24;101239.02;1645601;84;25681;-62
2021/05/29 10:04:39;;;;;;;12.23;6.05;;;;;;;12.59;69.12;101241.75;1648960;84;25695;-62
2021/05/29 10:07:10;;;;;;;10.82;6.50;;;;;;;12.49;69.32;101238.17;1675148;84;25780;-62
2021/05/29 10:09:36;;;;;;;14.98;6.40;;;;;;;12.44;69.42;101238.36;1646931;85;25689;-62
2021/05/29 10:12:04;;;;;;;11.40;5.30;;;;;;;12.44;69.50;101243.73;1649554;85;27428;-62
2021/05/29 10:14:35;;;;;;;8.03;5.70;;;;;;;12.37;69.43;101232.83;1658624;85;25674;-62
2021/05/29 10:17:13;;;;;;;10.88;5.75;;;;;;;12.36;69.64;101235.12;1654485;85;25696;-63
2021/05/29 10:19:45;;;;;;;10.13;5.58;;;;;;;12.36;69.65;101235.12;1653197;85;26404;-62
2021/05/29 10:22:14;;;;;;;10.75;6.30;;;;;;;12.35;69.80;101238.27;1659924;85;25710;-62
2021/05/29 10:24:42;;;;;;;7.25;5.35;;;;;;;12.33;69.93;101233.43;1656716;85;27386;-62
2021/05/29 10:27:19;;;;;;;15.83;7.08;;;;;;;12.34;70.00;101232.95;1666750;85;25620;-63
2021/05/29 10:29:44;;;;;;;7.25;5.60;;;;;;;12.28;70.15;101223.34;1641826;85;26040;-62
2021/05/29 10:32:19;;;;;;;12.63;5.67;;;;;;;12.35;70.25;101222.61;1651373;84;25693;-63
2021/05/29 10:35:10;;;;;;;12.07;6.05;;;;;;;12.44;70.30;101221.36;1651325;84;25633;-62
2021/05/29 10:37:46;;;;;;;13.20;6.72;;;;;;;12.52;70.26;101217.88;1646894;84;28111;-63
2021/05/29 10:40:31;;;;;;;11.95;6.17;;;;;;;12.48;70.31;101188.90;1632841;85;25835;-62
2021/05/29 10:43:20;;;;;;;11.93;5.60;;;;;;;12.79;70.39;101215.82;1648599;85;26375;-62
2021/05/29 10:45:57;;;;;;;10.90;6.50;;;;;;;12.93;70.13;101210.72;1646577;85;25708;-62
2021/05/29 10:48:27;;;;;;;10.35;6.10;;;;;;;13.15;70.32;101207.44;1640339;85;25704;-62
2021/05/29 10:51:03;;;;;;;9.20;5.15;;;;;;;13.33;69.92;101214.71;1646536;85;27375;-63
2021/05/29 10:53:41;;;;;;;9.90;5.58;;;;;;;13.39;69.44;101205.95;1656282;85;26396;-62
2021/05/29 10:56:22;;;;;;;10.30;5.40;;;;;;;13.45;69.58;101192.20;1634782;84;26388;-63
2021/05/29 10:59:17;;;;;;;8.88;5.78;;;;;;;13.69;69.37;101200.48;1643234;85;25768;-62
2021/05/29 11:01:49;;;;;;;9.43;5.47;;;;;;;13.83;68.99;101202.52;1642758;85;26273;-63
2021/05/29 11:04:25;;;;;;;10.15;5.70;;;;;;;13.93;68.97;101192.57;1637784;85;27411;-63
2021/05/29 11:06:59;;;;;;;11.97;5.95;;;;;;;14.01;68.71;101182.77;1645027;85;25614;-62
2021/05/29 11:09:36;;;;;;;11.95;6.08;;;;;;;14.13;68.83;101181.28;1670572;84;25719;-62
2021/05/29 11:12:07;;;;;;;11.10;5.90;;;;;;;14.33;68.81;101179.82;1665011;84;26021;-62
2021/05/29 11:14:56;;;;;;;11.48;5.95;;;;;;;14.56;68.69;101174.64;1645739;84;25732;-63
2021/05/29 11:17:27;;;;;;;9.50;5.35;;;;;;;14.83;68.25;101173.68;1670036;84;27430;-62
2021/05/29 11:20:18;;;;;;;8.23;5.47;;;;;;;15.03;67.85;101161.83;1663999;84;25805;-62
2021/05/29 11:22:49;;;;;;;10.28;5.55;;;;;;;15.14;67.12;101144.57;1658345;84;25699;-63
2021/05/29 11:25:24;;;;;;;10.13;5.40;;;;;;;15.26;67.13;101152.88;1644592;84;25685;-62
2021/05/29 11:27:52;;;;;;;11.55;5.50;;;;;;;15.29;65.86;101145.56;1669207;84;25663;-63
2021/05/29 11:30:33;;;;;;;11.38;6.22;;;;;;;15.22;65.65;101146.38;1647854;84;27412;-63
2021/05/29 11:35:45;;;;;;;14.00;6.53;;;;;;;15.11;65.21;101164.52;1668605;84;26321;-63
2021/05/29 11:38:40;;;;;;;9.90;5.47;;;;;;;15.08;64.03;101166.50;1655377;84;26723;-63
2021/05/29 11:41:08;;;;;;;9.43;6.15;;;;;;;14.93;63.82;101143.90;1661188;84;26328;-63
2021/05/29 11:43:55;;;;;;;10.88;5.95;;;;;;;15.00;63.99;101145.80;1655667;84;26939;-63
2021/05/29 11:46:32;;;;;;;10.43;6.50;;;;;;;15.11;63.71;101136.16;1652029;84;26397;-63
2021/05/29 11:49:07;;;;;;;11.43;6.65;;;;;;;15.13;63.31;101138.30;1656131;84;25588;-63